createdAt,value
2022-11-15T00:00:49.070Z,41.73
2022-11-15T00:03:16.986Z,37.87
2022-11-15T00:05:44.780Z,41.87
2022-11-15T00:08:12.810Z,37.83
2022-11-15T00:10:42.087Z,35.57
2022-11-15T00:13:11.595Z,35.67
2022-11-15T00:15:39.823Z,42.80
2022-11-15T00:18:08.487Z,33.40
2022-11-15T00:20:36.255Z,33.90
2022-11-15T00:23:05.411Z,36.17
2022-11-15T00:25:33.470Z,35.67
2022-11-15T00:28:03.078Z,39.80
2022-11-15T00:30:30.909Z,40.73
2022-11-15T00:32:58.610Z,34.63
2022-11-15T00:35:26.346Z,34.73
2022-11-15T00:37:54.839Z,32.80
2022-11-15T00:40:22.596Z,32.43
2022-11-15T00:42:50.346Z,34.17
2022-11-15T00:45:19.423Z,34.13
2022-11-15T00:47:47.547Z,34.47
2022-11-15T00:50:15.955Z,30.70
2022-11-15T00:52:43.814Z,32.13
2022-11-15T00:55:15.093Z,31.57
2022-11-15T00:57:43.040Z,31.77
2022-11-15T01:00:12.148Z,31.13
2022-11-15T01:02:41.205Z,32.50
2022-11-15T01:05:10.168Z,29.87
2022-11-15T01:07:38.012Z,31.53
2022-11-15T01:10:06.502Z,30.97
2022-11-15T01:12:34.590Z,32.27
2022-11-15T01:15:03.201Z,34.10
2022-11-15T01:17:31.953Z,31.73
2022-11-15T01:20:00.989Z,35.37
2022-11-15T01:22:28.777Z,38.30
2022-11-15T01:24:56.515Z,32.57
2022-11-15T01:27:24.234Z,33.60
2022-11-15T01:29:52.373Z,44.40
2022-11-15T01:32:20.159Z,46.20
2022-11-15T01:34:47.901Z,39.23
2022-11-15T01:37:16.926Z,40.33
2022-11-15T01:39:44.648Z,38.77
2022-11-15T01:42:15.058Z,40.37
2022-11-15T01:44:45.408Z,38.57
2022-11-15T01:47:17.348Z,43.00
2022-11-15T01:49:52.961Z,51.50
2022-11-15T01:52:25.134Z,41.37
2022-11-15T01:54:58.379Z,49.43
2022-11-15T01:57:26.135Z,52.47
2022-11-15T01:59:53.895Z,49.17
2022-11-15T02:02:22.222Z,43.47
2022-11-15T02:04:50.126Z,45.00
2022-11-15T02:07:19.938Z,45.13
2022-11-15T02:09:49.675Z,49.13
2022-11-15T02:12:21.175Z,55.53
2022-11-15T02:14:53.548Z,54.73
2022-11-15T02:17:44.416Z,51.47
2022-11-15T02:20:44.356Z,52.73
2022-11-15T02:23:47.407Z,49.57
2022-11-15T02:26:36.473Z,50.70
2022-11-15T02:29:09.750Z,48.00
2022-11-15T02:31:46.661Z,46.20
2022-11-15T02:34:25.287Z,47.77
2022-11-15T02:37:02.530Z,45.07
2022-11-15T02:39:34.759Z,57.97
2022-11-15T02:42:05.869Z,45.40
2022-11-15T02:44:38.052Z,44.03
2022-11-15T02:47:16.581Z,42.50
2022-11-15T02:49:48.265Z,45.13
2022-11-15T02:52:18.132Z,40.03
2022-11-15T02:54:55.884Z,44.00
2022-11-15T02:57:37.565Z,48.50
2022-11-15T03:00:09.367Z,47.73
2022-11-15T03:02:50.063Z,44.13
2022-11-15T03:05:25.441Z,46.10
2022-11-15T03:08:02.240Z,44.97
2022-11-15T03:10:37.973Z,44.97
2022-11-15T03:13:16.874Z,41.00
2022-11-15T03:15:54.597Z,43.07
2022-11-15T03:18:30.609Z,44.53
2022-11-15T03:21:01.791Z,45.53
2022-11-15T03:23:32.527Z,42.13
2022-11-15T03:26:02.109Z,44.20
2022-11-15T03:28:34.480Z,41.37
2022-11-15T03:31:24.438Z,38.63
2022-11-15T03:33:57.833Z,41.63
2022-11-15T03:36:27.554Z,39.47
2022-11-15T03:38:58.960Z,41.10
2022-11-15T03:41:37.162Z,42.00
2022-11-15T03:44:13.888Z,38.93
2022-11-15T03:46:48.796Z,37.27
2022-11-15T03:49:23.845Z,35.77
2022-11-15T03:51:51.586Z,33.80
2022-11-15T03:54:19.409Z,38.33
2022-11-15T03:56:47.071Z,38.67
2022-11-15T03:59:14.755Z,32.40
2022-11-15T04:01:42.443Z,34.53
2022-11-15T04:04:10.182Z,37.03
2022-11-15T04:06:39.865Z,35.23
2022-11-15T04:09:07.690Z,37.67
2022-11-15T04:11:35.391Z,40.73
2022-11-15T04:14:03.244Z,41.53
2022-11-15T04:16:30.936Z,38.43
2022-11-15T04:19:12.692Z,39.83
2022-11-15T04:21:59.207Z,37.10
2022-11-15T04:24:26.917Z,38.13
2022-11-15T04:26:54.632Z,39.87
2022-11-15T04:29:37.620Z,37.43
2022-11-15T04:32:06.122Z,42.27
2022-11-15T04:34:34.188Z,45.13
2022-11-15T04:37:17.011Z,36.63
2022-11-15T04:39:45.458Z,46.93
2022-11-15T04:42:13.404Z,36.87
2022-11-15T04:44:41.175Z,38.27
2022-11-15T04:47:08.851Z,36.83
2022-11-15T04:49:36.548Z,33.40
2022-11-15T04:52:05.936Z,33.13
2022-11-15T04:54:33.721Z,30.23
2022-11-15T04:57:01.411Z,34.60
2022-11-15T04:59:29.116Z,37.20
2022-11-15T05:01:56.800Z,33.70
2022-11-15T05:04:23.553Z,35.40
2022-11-15T05:06:52.948Z,33.90
2022-11-15T05:09:23.019Z,39.40
2022-11-15T05:11:50.708Z,40.70
2022-11-15T05:14:18.618Z,37.43
2022-11-15T05:16:46.464Z,37.23
2022-11-15T05:19:14.344Z,37.53
2022-11-15T05:21:42.412Z,32.37
2022-11-15T05:24:12.050Z,39.07
2022-11-15T05:26:41.314Z,33.43
2022-11-15T05:29:11.366Z,33.47
2022-11-15T05:31:42.807Z,38.63
2022-11-15T05:34:10.964Z,42.20
2022-11-15T05:36:42.840Z,35.83
2022-11-15T05:39:10.961Z,37.53
2022-11-15T05:41:44.633Z,35.57
2022-11-15T05:44:15.288Z,35.83
2022-11-15T05:46:45.045Z,34.60
2022-11-15T05:49:16.529Z,35.90
2022-11-15T05:51:46.167Z,36.43
2022-11-15T05:54:14.117Z,36.43
2022-11-15T05:56:43.681Z,36.17
2022-11-15T05:59:12.766Z,41.60
2022-11-15T06:01:41.692Z,45.27
2022-11-15T06:04:09.670Z,39.40
2022-11-15T06:06:37.555Z,42.67
2022-11-15T06:09:05.532Z,48.67
2022-11-15T06:11:33.368Z,43.90
2022-11-15T06:14:02.687Z,34.97
2022-11-15T06:16:30.641Z,34.33
2022-11-15T06:18:58.662Z,39.00
2022-11-15T06:21:28.851Z,36.60
2022-11-15T06:23:56.897Z,37.30
2022-11-15T06:26:24.842Z,37.93
2022-11-15T06:28:52.728Z,36.33
2022-11-15T06:31:21.971Z,39.40
2022-11-15T06:33:50.594Z,39.90
2022-11-15T06:36:18.819Z,43.70
2022-11-15T06:38:46.921Z,48.00
2022-11-15T06:41:16.063Z,48.97
2022-11-15T06:43:44.273Z,43.60
2022-11-15T06:46:12.398Z,43.30
2022-11-15T06:48:41.652Z,42.33
2022-11-15T06:51:09.573Z,40.80
2022-11-15T06:53:37.682Z,42.80
2022-11-15T06:56:07.561Z,41.57
2022-11-15T06:58:36.095Z,46.27
2022-11-15T07:01:05.953Z,43.63
2022-11-15T07:03:35.945Z,42.27
2022-11-15T07:06:07.498Z,45.37
2022-11-15T07:08:36.544Z,40.13
2022-11-15T07:11:06.972Z,42.37
2022-11-15T07:13:35.894Z,43.47
2022-11-15T07:16:05.623Z,39.33
2022-11-15T07:18:35.586Z,41.13
2022-11-15T07:21:06.030Z,41.80
2022-11-15T07:23:34.753Z,39.30
2022-11-15T07:26:02.919Z,37.23
2022-11-15T07:28:30.918Z,36.47
2022-11-15T07:30:59.113Z,42.97
2022-11-15T07:33:26.967Z,36.33
2022-11-15T07:35:54.753Z,39.40
2022-11-15T07:38:24.003Z,44.10
2022-11-15T07:40:58.504Z,46.83
2022-11-15T07:43:28.856Z,48.50
2022-11-15T07:45:59.352Z,40.33
2022-11-15T07:48:40.242Z,38.90
2022-11-15T07:51:14.868Z,34.80
2022-11-15T07:53:44.542Z,42.97
2022-11-15T07:56:12.912Z,36.87
2022-11-15T07:58:40.803Z,37.87
2022-11-15T08:01:13.459Z,39.73
2022-11-15T08:03:41.452Z,37.90
2022-11-15T08:06:09.511Z,37.37
2022-11-15T08:08:37.450Z,36.80
2022-11-15T08:11:06.889Z,35.67
2022-11-15T08:13:35.128Z,36.20
2022-11-15T08:16:06.428Z,36.40
2022-11-15T08:18:34.560Z,36.57
2022-11-15T08:21:03.114Z,36.63
2022-11-15T08:23:32.093Z,35.63
2022-11-15T08:26:03.977Z,33.50
2022-11-15T08:28:33.825Z,35.97
2022-11-15T08:31:02.023Z,34.93
2022-11-15T08:33:30.820Z,32.47
2022-11-15T08:35:59.483Z,40.77
2022-11-15T08:38:27.567Z,34.33
2022-11-15T08:41:01.642Z,33.87
2022-11-15T08:43:29.795Z,34.20
2022-11-15T08:45:59.767Z,35.63
2022-11-15T08:48:27.771Z,42.17
2022-11-15T08:50:56.427Z,36.93
2022-11-15T08:53:24.298Z,38.83
2022-11-15T08:55:52.244Z,35.83
2022-11-15T08:58:20.113Z,38.40
2022-11-15T09:00:47.968Z,36.53
2022-11-15T09:03:17.291Z,37.10
2022-11-15T09:05:45.268Z,34.20
2022-11-15T09:08:40.825Z,35.23
2022-11-15T09:11:05.694Z,33.87
2022-11-15T09:13:33.633Z,31.45
2022-11-15T09:16:02.006Z,31.93
2022-11-15T09:18:32.000Z,34.60
2022-11-15T09:21:00.818Z,29.30
2022-11-15T09:23:29.109Z,29.73
2022-11-15T09:26:02.048Z,26.93
2022-11-15T09:28:30.638Z,28.70
2022-11-15T09:31:00.597Z,26.97
2022-11-15T09:33:30.035Z,26.80
2022-11-15T09:36:04.111Z,23.13
2022-11-15T09:38:32.489Z,23.93
2022-11-15T09:41:34.004Z,22.90
2022-11-15T09:44:25.122Z,21.47
2022-11-15T09:47:02.846Z,20.50
2022-11-15T09:49:32.035Z,20.50
2022-11-15T09:52:01.638Z,18.17
2022-11-15T09:57:26.044Z,17.70
2022-11-15T10:00:23.802Z,20.27
2022-11-15T10:03:06.573Z,16.40
2022-11-15T10:05:39.600Z,15.77
2022-11-15T10:08:24.923Z,16.30
2022-11-15T10:11:22.776Z,17.77
2022-11-15T10:13:48.626Z,14.17
2022-11-15T10:16:44.209Z,17.97
2022-11-15T10:19:25.572Z,15.77
2022-11-15T10:22:05.278Z,18.40
2022-11-15T10:24:39.000Z,13.40
2022-11-15T10:27:12.651Z,16.27
2022-11-15T10:29:45.509Z,13.77
2022-11-15T10:32:13.892Z,15.20
2022-11-15T10:34:42.653Z,12.63
2022-11-15T10:37:10.579Z,13.35
2022-11-15T10:39:40.067Z,16.17
2022-11-15T10:42:19.124Z,13.80
2022-11-15T10:44:47.729Z,15.80
2022-11-15T10:47:27.688Z,14.10
2022-11-15T10:50:01.609Z,15.35
2022-11-15T10:52:30.955Z,14.10
2022-11-15T10:55:04.520Z,13.97
2022-11-15T10:57:35.636Z,11.85
2022-11-15T11:00:06.670Z,11.02
2022-11-15T11:02:37.631Z,13.07
2022-11-15T11:05:07.904Z,11.70
2022-11-15T11:07:37.917Z,13.15
2022-11-15T11:10:49.173Z,8.95
2022-11-15T11:13:16.113Z,11.43
2022-11-15T11:15:46.604Z,10.68
2022-11-15T11:18:21.445Z,10.88
2022-11-15T11:20:53.314Z,9.27
2022-11-15T11:23:45.222Z,8.18
2022-11-15T11:26:30.012Z,7.13
2022-11-15T11:29:04.307Z,7.90
2022-11-15T11:31:37.884Z,7.97
2022-11-15T11:34:14.991Z,6.60
2022-11-15T11:36:51.454Z,7.53
2022-11-15T11:39:26.558Z,7.30
2022-11-15T11:42:14.474Z,8.25
2022-11-15T11:44:55.511Z,8.30
2022-11-15T11:47:26.123Z,7.65
2022-11-15T11:49:58.301Z,8.27
2022-11-15T11:52:32.072Z,9.20
2022-11-15T11:55:06.287Z,8.35
2022-11-15T11:57:44.282Z,8.10
2022-11-15T12:00:21.216Z,8.95
2022-11-15T12:02:56.668Z,7.55
2022-11-15T12:05:30.942Z,9.88
2022-11-15T12:08:05.980Z,7.70
2022-11-15T12:10:36.385Z,7.50
2022-11-15T12:13:11.593Z,7.13
2022-11-15T12:15:44.543Z,8.82
2022-11-15T12:18:17.089Z,8.18
2022-11-15T12:20:54.382Z,9.88
2022-11-15T12:23:29.771Z,6.75
2022-11-15T12:26:02.617Z,8.60
2022-11-15T12:28:52.937Z,5.63
2022-11-15T12:31:37.423Z,6.05
2022-11-15T12:34:15.458Z,5.85
2022-11-15T12:36:45.878Z,5.72
2022-11-15T12:39:15.069Z,5.95
2022-11-15T12:41:44.630Z,6.65
2022-11-15T12:44:15.618Z,6.05
2022-11-15T12:47:05.929Z,6.90
2022-11-15T12:49:49.758Z,6.43
2022-11-15T12:52:18.436Z,5.97
2022-11-15T12:55:00.640Z,8.40
2022-11-15T12:57:37.274Z,6.93
2022-11-15T13:00:45.082Z,8.02
2022-11-15T13:03:27.761Z,7.78
2022-11-15T13:06:01.419Z,6.10
2022-11-15T13:08:50.783Z,5.25
2022-11-15T13:12:02.766Z,5.47
2022-11-15T13:14:50.611Z,9.55
2022-11-15T13:17:41.243Z,5.78
2022-11-15T13:20:30.415Z,5.78
2022-11-15T13:23:11.357Z,6.85
2022-11-15T13:26:08.324Z,7.35
2022-11-15T13:28:39.423Z,7.50
2022-11-15T13:31:23.709Z,7.95
2022-11-15T13:33:53.794Z,7.00
2022-11-15T13:36:23.894Z,8.40
2022-11-15T13:39:00.932Z,12.43
2022-11-15T13:41:30.892Z,10.65
2022-11-15T13:44:00.406Z,11.65
2022-11-15T13:46:29.985Z,11.65
2022-11-15T13:49:01.928Z,14.20
2022-11-15T13:51:36.078Z,9.23
2022-11-15T13:54:10.607Z,12.70
2022-11-15T13:56:39.284Z,10.00
2022-11-15T13:59:12.182Z,12.98
2022-11-15T14:01:45.234Z,10.00
2022-11-15T14:04:20.287Z,8.70
2022-11-15T14:06:51.081Z,9.35
2022-11-15T14:09:34.769Z,8.88
2022-11-15T14:12:04.858Z,14.52
2022-11-15T14:14:32.580Z,9.13
2022-11-15T14:17:02.352Z,10.27
2022-11-15T14:19:39.941Z,10.93
2022-11-15T14:22:17.539Z,12.13
2022-11-15T14:24:47.126Z,10.43
2022-11-15T14:27:26.396Z,12.07
2022-11-15T14:29:55.027Z,11.02
2022-11-15T14:32:25.274Z,9.30
2022-11-15T14:34:59.209Z,11.00
2022-11-15T14:37:29.158Z,11.45
2022-11-15T14:39:57.285Z,10.60
2022-11-15T14:42:26.256Z,10.85
2022-11-15T14:44:54.329Z,9.82
2022-11-15T14:47:22.484Z,17.25
2022-11-15T14:49:50.383Z,14.52
2022-11-15T14:52:32.671Z,10.23
2022-11-15T14:55:02.380Z,17.27
2022-11-15T14:57:30.591Z,11.43
2022-11-15T14:59:58.836Z,13.23
2022-11-15T15:02:28.822Z,11.40
2022-11-15T15:04:56.900Z,9.73
2022-11-15T15:07:24.869Z,12.07
2022-11-15T15:10:02.772Z,11.00
2022-11-15T15:12:42.864Z,13.43
2022-11-15T15:15:16.200Z,10.90
2022-11-15T15:17:44.137Z,10.47
2022-11-15T15:20:12.714Z,12.43
2022-11-15T15:22:41.119Z,10.90
2022-11-15T15:25:26.870Z,12.33
2022-11-15T15:27:55.551Z,11.20
2022-11-15T15:30:23.647Z,12.23
2022-11-15T15:32:51.711Z,11.67
2022-11-15T15:35:20.407Z,11.67
2022-11-15T15:37:49.719Z,12.20
2022-11-15T15:40:20.977Z,13.43
2022-11-15T15:42:50.788Z,13.63
2022-11-15T15:45:19.717Z,15.50
2022-11-15T15:47:50.338Z,14.13
2022-11-15T15:50:24.639Z,17.60
2022-11-15T15:52:53.675Z,19.43
2022-11-15T15:55:21.558Z,19.13
2022-11-15T15:57:51.454Z,16.00
2022-11-15T16:00:20.522Z,16.53
2022-11-15T16:02:48.444Z,18.20
2022-11-15T16:05:16.764Z,18.60
2022-11-15T16:07:45.156Z,16.87
2022-11-15T16:10:21.684Z,17.23
2022-11-15T16:12:51.302Z,18.30
2022-11-15T16:15:19.291Z,19.97
2022-11-15T16:17:51.705Z,18.60
2022-11-15T16:20:38.337Z,21.97
2022-11-15T16:23:09.686Z,17.30
2022-11-15T16:25:42.563Z,17.97
2022-11-15T16:28:20.941Z,17.07
2022-11-15T16:30:55.410Z,12.93
2022-11-15T16:33:24.833Z,13.20
2022-11-15T16:35:52.672Z,15.47
2022-11-15T16:38:20.881Z,12.57
2022-11-15T16:40:48.657Z,15.17
2022-11-15T16:43:17.850Z,12.83
2022-11-15T16:45:45.733Z,13.73
2022-11-15T16:48:23.434Z,18.13
2022-11-15T16:50:51.109Z,15.10
2022-11-15T16:53:19.023Z,13.83
2022-11-15T16:55:46.707Z,14.37
2022-11-15T16:58:14.419Z,13.10
2022-11-15T17:00:43.601Z,17.37
2022-11-15T17:03:12.032Z,17.47
2022-11-15T17:05:39.696Z,20.67
2022-11-15T17:08:07.998Z,17.73
2022-11-15T17:10:35.803Z,21.17
2022-11-15T17:13:03.499Z,20.67
2022-11-15T17:15:31.202Z,21.40
2022-11-15T17:18:00.691Z,22.70
2022-11-15T17:20:28.441Z,24.70
2022-11-15T17:22:57.427Z,29.17
2022-11-15T17:25:25.136Z,25.80
2022-11-15T17:27:52.859Z,24.47
2022-11-15T17:30:20.947Z,27.23
2022-11-15T17:32:49.784Z,25.70
2022-11-15T17:35:18.979Z,25.13
2022-11-15T17:37:48.299Z,23.57
2022-11-15T17:40:16.694Z,26.17
2022-11-15T17:42:44.749Z,27.43
2022-11-15T17:45:12.904Z,28.70
2022-11-15T17:47:40.623Z,28.00
2022-11-15T17:50:09.414Z,24.97
2022-11-15T17:52:38.447Z,27.70
2022-11-15T17:55:06.826Z,24.10
2022-11-15T17:57:34.532Z,24.97
2022-11-15T18:00:02.225Z,27.13
2022-11-15T18:02:29.944Z,27.13
2022-11-15T18:04:57.621Z,25.17
2022-11-15T18:07:25.377Z,24.50
2022-11-15T18:09:54.427Z,27.07
2022-11-15T18:12:22.181Z,28.77
2022-11-15T18:14:49.866Z,27.90
2022-11-15T18:17:19.049Z,27.03
2022-11-15T18:19:48.566Z,27.03
2022-11-15T18:22:16.302Z,28.47
2022-11-15T18:24:44.827Z,27.20
2022-11-15T18:27:13.864Z,26.73
2022-11-15T18:29:41.744Z,32.83
2022-11-15T18:32:12.588Z,26.10
2022-11-15T18:34:40.434Z,28.67
2022-11-15T18:37:08.542Z,28.03
2022-11-15T18:39:36.595Z,30.60
2022-11-15T18:42:04.794Z,26.67
2022-11-15T18:44:34.464Z,28.83
2022-11-15T18:47:02.309Z,30.03
2022-11-15T18:49:29.998Z,28.50
2022-11-15T18:51:57.804Z,33.95
2022-11-15T18:54:29.785Z,33.07
2022-11-15T18:56:58.892Z,25.00
2022-11-15T18:59:27.678Z,67.70
2022-11-15T19:01:56.953Z,83.23
2022-11-15T19:04:24.998Z,40.57
2022-11-15T19:06:53.591Z,34.43
2022-11-15T19:09:21.450Z,32.13
2022-11-15T19:11:51.490Z,35.43
2022-11-15T19:14:23.855Z,44.13
2022-11-15T19:16:52.414Z,39.73
2022-11-15T19:19:23.392Z,32.87
2022-11-15T19:21:51.626Z,31.90
2022-11-15T19:24:19.566Z,33.03
2022-11-15T19:26:47.688Z,31.60
2022-11-15T19:29:15.770Z,28.83
2022-11-15T19:31:43.790Z,27.17
2022-11-15T19:34:12.957Z,27.73
2022-11-15T19:36:43.759Z,23.83
2022-11-15T19:39:13.876Z,26.07
2022-11-15T19:41:43.201Z,29.47
2022-11-15T19:44:11.761Z,33.00
2022-11-15T19:46:39.800Z,31.20
2022-11-15T19:49:10.424Z,31.70
2022-11-15T19:51:38.976Z,36.70
2022-11-15T19:54:09.788Z,32.33
2022-11-15T19:56:38.049Z,33.30
2022-11-15T19:59:06.069Z,31.30
2022-11-15T20:01:36.232Z,34.53
2022-11-15T20:04:04.429Z,33.93
2022-11-15T20:06:34.188Z,36.63
2022-11-15T20:09:01.955Z,39.47
2022-11-15T20:11:31.036Z,34.70
2022-11-15T20:13:59.483Z,33.60
2022-11-15T20:16:27.390Z,33.83
2022-11-15T20:18:55.294Z,34.20
2022-11-15T20:21:23.040Z,35.87
2022-11-15T20:23:51.675Z,36.40
2022-11-15T20:26:19.787Z,40.60
2022-11-15T20:28:49.527Z,38.93
2022-11-15T20:31:18.238Z,41.50
2022-11-15T20:33:46.440Z,44.60
2022-11-15T20:36:16.257Z,47.60
2022-11-15T20:38:44.404Z,48.27
2022-11-15T20:41:12.176Z,52.63
2022-11-15T20:43:43.238Z,49.37
2022-11-15T20:46:12.906Z,46.80
2022-11-15T20:48:41.242Z,44.33
2022-11-15T20:51:12.393Z,48.23
2022-11-15T20:53:40.842Z,47.17
2022-11-15T20:56:11.485Z,43.57
2022-11-15T20:58:39.692Z,52.20
2022-11-15T21:01:09.068Z,52.53
2022-11-15T21:03:38.316Z,56.13
2022-11-15T21:06:06.490Z,54.87
2022-11-15T21:08:54.435Z,54.47
2022-11-15T21:11:39.591Z,71.20
2022-11-15T21:14:09.498Z,59.70
2022-11-15T21:16:37.513Z,56.57
2022-11-15T21:19:07.058Z,54.07
2022-11-15T21:21:35.051Z,50.50
2022-11-15T21:24:03.992Z,81.53
2022-11-15T21:26:31.781Z,54.50
2022-11-15T21:28:59.531Z,97.23
2022-11-15T21:31:27.285Z,44.07
2022-11-15T21:33:55.133Z,51.77
2022-11-15T21:36:25.031Z,101.83
2022-11-15T21:38:53.687Z,77.53
2022-11-15T21:41:21.476Z,62.13
2022-11-15T21:43:49.211Z,51.27
2022-11-15T21:46:17.449Z,54.53
2022-11-15T21:48:45.150Z,62.73
2022-11-15T21:51:13.123Z,63.43
2022-11-15T21:53:42.397Z,45.57
2022-11-15T21:56:11.899Z,47.87
2022-11-15T21:58:40.532Z,65.17
2022-11-15T22:01:26.609Z,61.80
2022-11-15T22:03:54.461Z,67.33
2022-11-15T22:06:22.222Z,71.30
2022-11-15T22:08:51.362Z,84.07
2022-11-15T22:11:19.180Z,71.67
2022-11-15T22:13:46.942Z,52.90
2022-11-15T22:16:14.647Z,63.37
2022-11-15T22:18:42.412Z,64.03
2022-11-15T22:21:11.971Z,73.47
2022-11-15T22:23:40.046Z,73.57
2022-11-15T22:26:11.540Z,79.73
2022-11-15T22:28:39.272Z,68.73
2022-11-15T22:31:07.044Z,72.53
2022-11-15T22:33:35.956Z,74.53
2022-11-15T22:36:05.260Z,76.80
2022-11-15T22:38:33.225Z,76.77
2022-11-15T22:41:01.833Z,65.23
2022-11-15T22:43:30.936Z,77.33
2022-11-15T22:46:00.161Z,67.83
2022-11-15T22:48:29.483Z,58.57
2022-11-15T22:50:57.965Z,54.90
2022-11-15T22:53:26.706Z,53.10
2022-11-15T22:55:56.055Z,55.83
2022-11-15T22:58:26.044Z,57.70
2022-11-15T23:00:57.520Z,48.13
2022-11-15T23:03:26.870Z,48.60
2022-11-15T23:05:55.087Z,47.40
2022-11-15T23:08:24.198Z,66.67
2022-11-15T23:11:09.554Z,63.90
2022-11-15T23:13:37.423Z,68.97
2022-11-15T23:16:23.993Z,60.00
2022-11-15T23:18:53.291Z,76.00
2022-11-15T23:21:37.438Z,71.57
2022-11-15T23:24:06.447Z,71.00
2022-11-15T23:26:34.152Z,57.60
2022-11-15T23:29:01.859Z,84.77
2022-11-15T23:31:56.331Z,65.30
2022-11-15T23:34:28.996Z,60.10
2022-11-15T23:36:56.740Z,60.57
2022-11-15T23:39:24.473Z,55.07
2022-11-15T23:41:52.152Z,52.17
2022-11-15T23:44:19.980Z,53.47
2022-11-15T23:46:48.995Z,62.17
2022-11-15T23:49:16.711Z,56.43
2022-11-15T23:51:44.596Z,60.20
2022-11-15T23:54:13.132Z,58.17
2022-11-15T23:56:41.123Z,60.73
2022-11-15T23:59:08.938Z,68.13
